sensor_id;sensor_type;location;lat;lon;timestamp;pressure;altitude;pressure_sealevel;temperature;humidity
61682;BME280;47577;43.610;25.010;2022-10-30T00:00:40;101158.84;;;12.06;68.48
61682;BME280;47577;43.610;25.010;2022-10-30T00:03:08;101164.56;;;12.24;68.02
61682;BME280;47577;43.610;25.010;2022-10-30T00:05:34;101169.88;;;12.25;67.88
61682;BME280;47577;43.610;25.010;2022-10-30T00:08:00;101168.81;;;12.31;67.97
61682;BME280;47577;43.610;25.010;2022-10-30T00:10:25;101164.53;;;11.94;68.70
61682;BME280;47577;43.610;25.010;2022-10-30T00:12:51;101161.69;;;12.00;68.35
61682;BME280;47577;43.610;25.010;2022-10-30T00:15:17;101155.72;;;11.91;68.60
61682;BME280;47577;43.610;25.010;2022-10-30T00:17:43;101155.09;;;11.81;68.92
61682;BME280;47577;43.610;25.010;2022-10-30T00:20:09;101154.13;;;11.83;69.19
61682;BME280;47577;43.610;25.010;2022-10-30T00:22:35;101156.56;;;11.91;68.66
61682;BME280;47577;43.610;25.010;2022-10-30T00:25:02;101146.94;;;11.85;69.09
61682;BME280;47577;43.610;25.010;2022-10-30T00:27:27;101148.63;;;11.89;68.76
61682;BME280;47577;43.610;25.010;2022-10-30T00:29:53;101137.06;;;11.91;69.35
61682;BME280;47577;43.610;25.010;2022-10-30T00:32:19;101145.72;;;12.00;68.01
61682;BME280;47577;43.610;25.010;2022-10-30T00:34:45;101147.28;;;12.07;68.49
61682;BME280;47577;43.610;25.010;2022-10-30T00:37:10;101132.91;;;12.13;67.54
61682;BME280;47577;43.610;25.010;2022-10-30T00:39:36;101138.09;;;12.18;67.99
61682;BME280;47577;43.610;25.010;2022-10-30T00:42:02;101131.06;;;12.15;67.38
61682;BME280;47577;43.610;25.010;2022-10-30T00:47:20;101134.47;;;12.20;67.49
61682;BME280;47577;43.610;25.010;2022-10-30T00:49:55;101123.31;;;12.06;68.10
61682;BME280;47577;43.610;25.010;2022-10-30T00:52:23;101129.34;;;12.13;67.84
61682;BME280;47577;43.610;25.010;2022-10-30T00:54:51;101130.41;;;12.07;68.27
61682;BME280;47577;43.610;25.010;2022-10-30T00:57:18;101130.72;;;12.26;66.90
61682;BME280;47577;43.610;25.010;2022-10-30T00:59:44;101134.28;;;12.27;66.89
61682;BME280;47577;43.610;25.010;2022-10-30T01:02:11;101139.59;;;12.28;67.31
61682;BME280;47577;43.610;25.010;2022-10-30T01:04:37;101121.66;;;12.33;67.04
61682;BME280;47577;43.610;25.010;2022-10-30T01:07:10;101121.19;;;12.49;66.90
61682;BME280;47577;43.610;25.010;2022-10-30T01:09:37;101125.81;;;12.42;66.73
61682;BME280;47577;43.610;25.010;2022-10-30T01:12:04;101125.69;;;12.47;65.58
61682;BME280;47577;43.610;25.010;2022-10-30T01:14:31;101128.44;;;12.43;66.37
61682;BME280;47577;43.610;25.010;2022-10-30T01:26:13;101099.38;;;12.04;68.47
61682;BME280;47577;43.610;25.010;2022-10-30T01:31:43;101102.66;;;12.14;67.84
61682;BME280;47577;43.610;25.010;2022-10-30T01:37:32;101094.41;;;11.92;68.72
61682;BME280;47577;43.610;25.010;2022-10-30T01:40:18;101095.66;;;11.77;69.53
61682;BME280;47577;43.610;25.010;2022-10-30T01:42:49;101079.38;;;11.88;69.06
61682;BME280;47577;43.610;25.010;2022-10-30T02:01:28;101078.09;;;12.03;68.83
61682;BME280;47577;43.610;25.010;2022-10-30T02:03:57;101066.44;;;12.07;68.60
61682;BME280;47577;43.610;25.010;2022-10-30T02:06:24;101065.72;;;12.02;68.78
61682;BME280;47577;43.610;25.010;2022-10-30T02:08:50;101053.38;;;11.98;68.93
61682;BME280;47577;43.610;25.010;2022-10-30T02:11:19;101056.00;;;11.99;68.81
61682;BME280;47577;43.610;25.010;2022-10-30T02:13:45;101046.53;;;11.87;69.01
61682;BME280;47577;43.610;25.010;2022-10-30T02:16:11;101056.91;;;11.98;69.21
61682;BME280;47577;43.610;25.010;2022-10-30T02:18:36;101062.88;;;12.06;68.60
61682;BME280;47577;43.610;25.010;2022-10-30T02:21:02;101053.28;;;12.01;68.80
61682;BME280;47577;43.610;25.010;2022-10-30T02:23:28;101056.47;;;12.14;67.61
61682;BME280;47577;43.610;25.010;2022-10-30T02:25:54;101053.84;;;12.12;67.67
61682;BME280;47577;43.610;25.010;2022-10-30T02:28:19;101043.44;;;12.03;68.11
61682;BME280;47577;43.610;25.010;2022-10-30T02:30:45;101055.47;;;12.16;67.74
61682;BME280;47577;43.610;25.010;2022-10-30T02:33:11;101059.00;;;12.18;67.89
61682;BME280;47577;43.610;25.010;2022-10-30T02:35:36;101050.31;;;12.12;67.67
61682;BME280;47577;43.610;25.010;2022-10-30T02:38:02;101045.13;;;12.07;67.15
61682;BME280;47577;43.610;25.010;2022-10-30T02:40:28;101030.91;;;12.06;68.18
61682;BME280;47577;43.610;25.010;2022-10-30T02:42:54;101048.38;;;12.17;67.36
61682;BME280;47577;43.610;25.010;2022-10-30T02:45:20;101043.06;;;11.84;68.62
61682;BME280;47577;43.610;25.010;2022-10-30T02:47:46;101042.84;;;11.93;68.60
61682;BME280;47577;43.610;25.010;2022-10-30T02:50:11;101046.88;;;11.75;68.38
61682;BME280;47577;43.610;25.010;2022-10-30T02:52:37;101058.38;;;11.77;68.71
61682;BME280;47577;43.610;25.010;2022-10-30T02:55:03;101050.03;;;11.89;68.32
61682;BME280;47577;43.610;25.010;2022-10-30T02:57:29;101040.44;;;11.82;68.26
61682;BME280;47577;43.610;25.010;2022-10-30T02:59:54;101040.09;;;11.96;68.10
61682;BME280;47577;43.610;25.010;2022-10-30T03:02:20;101048.00;;;11.99;68.04
61682;BME280;47577;43.610;25.010;2022-10-30T03:04:46;101040.13;;;11.95;68.06
61682;BME280;47577;43.610;25.010;2022-10-30T03:07:11;101028.66;;;11.93;67.52
61682;BME280;47577;43.610;25.010;2022-10-30T03:09:37;101040.69;;;12.06;67.66
61682;BME280;47577;43.610;25.010;2022-10-30T03:12:03;101033.38;;;12.13;67.45
61682;BME280;47577;43.610;25.010;2022-10-30T03:14:29;101035.22;;;12.11;68.04
61682;BME280;47577;43.610;25.010;2022-10-30T03:16:54;101022.03;;;12.06;68.22
61682;BME280;47577;43.610;25.010;2022-10-30T03:19:20;101037.72;;;12.17;68.20
61682;BME280;47577;43.610;25.010;2022-10-30T03:21:45;101037.66;;;12.18;67.34
61682;BME280;47577;43.610;25.010;2022-10-30T03:24:11;101026.06;;;12.19;67.96
61682;BME280;47577;43.610;25.010;2022-10-30T03:26:37;101035.66;;;12.27;67.05
61682;BME280;47577;43.610;25.010;2022-10-30T03:29:03;101036.28;;;12.35;67.53
61682;BME280;47577;43.610;25.010;2022-10-30T03:31:30;101036.69;;;12.21;67.97
61682;BME280;47577;43.610;25.010;2022-10-30T03:33:56;101030.41;;;12.23;67.02
61682;BME280;47577;43.610;25.010;2022-10-30T03:36:24;101041.03;;;12.25;67.01
61682;BME280;47577;43.610;25.010;2022-10-30T03:38:49;101038.44;;;12.22;67.50
61682;BME280;47577;43.610;25.010;2022-10-30T03:41:15;101032.66;;;12.07;68.05
61682;BME280;47577;43.610;25.010;2022-10-30T03:43:41;101036.13;;;12.10;67.99
61682;BME280;47577;43.610;25.010;2022-10-30T03:46:08;101038.03;;;12.06;68.13
61682;BME280;47577;43.610;25.010;2022-10-30T03:48:34;101040.69;;;12.06;67.71
61682;BME280;47577;43.610;25.010;2022-10-30T03:51:00;101031.75;;;12.09;68.09
61682;BME280;47577;43.610;25.010;2022-10-30T03:53:27;101038.03;;;12.06;67.81
61682;BME280;47577;43.610;25.010;2022-10-30T03:55:57;101025.72;;;12.02;68.22
61682;BME280;47577;43.610;25.010;2022-10-30T03:58:24;101032.78;;;12.03;68.04
61682;BME280;47577;43.610;25.010;2022-10-30T04:00:49;101038.25;;;11.98;68.31
61682;BME280;47577;43.610;25.010;2022-10-30T04:03:15;101042.59;;;12.02;67.60
61682;BME280;47577;43.610;25.010;2022-10-30T04:05:41;101042.50;;;12.05;67.80
61682;BME280;47577;43.610;25.010;2022-10-30T04:08:13;101034.41;;;12.09;67.07
61682;BME280;47577;43.610;25.010;2022-10-30T04:10:43;101032.66;;;12.07;68.10
61682;BME280;47577;43.610;25.010;2022-10-30T04:13:10;101036.44;;;12.00;67.56
61682;BME280;47577;43.610;25.010;2022-10-30T04:15:36;101034.47;;;12.07;67.65
61682;BME280;47577;43.610;25.010;2022-10-30T04:18:02;101020.88;;;12.15;67.47
61682;BME280;47577;43.610;25.010;2022-10-30T04:20:28;101021.53;;;12.23;66.86
61682;BME280;47577;43.610;25.010;2022-10-30T04:22:56;101024.94;;;12.28;66.71
61682;BME280;47577;43.610;25.010;2022-10-30T04:25:22;101005.69;;;12.18;66.97
61682;BME280;47577;43.610;25.010;2022-10-30T04:27:48;101021.59;;;12.21;66.87
61682;BME280;47577;43.610;25.010;2022-10-30T04:30:13;101018.63;;;12.31;66.46
61682;BME280;47577;43.610;25.010;2022-10-30T04:32:50;101011.56;;;12.30;66.98
61682;BME280;47577;43.610;25.010;2022-10-30T04:35:17;101031.22;;;12.25;66.60
61682;BME280;47577;43.610;25.010;2022-10-30T04:37:51;101016.34;;;12.18;66.82
61682;BME280;47577;43.610;25.010;2022-10-30T04:40:17;101011.19;;;12.12;66.75
61682;BME280;47577;43.610;25.010;2022-10-30T04:42:45;101028.38;;;12.32;66.75
61682;BME280;47577;43.610;25.010;2022-10-30T04:45:11;101022.34;;;12.25;66.10
61682;BME280;47577;43.610;25.010;2022-10-30T04:47:37;101012.75;;;12.19;65.97
61682;BME280;47577;43.610;25.010;2022-10-30T04:50:03;101016.97;;;12.27;66.06
61682;BME280;47577;43.610;25.010;2022-10-30T04:52:29;101010.63;;;12.31;66.35
61682;BME280;47577;43.610;25.010;2022-10-30T04:54:55;101011.34;;;12.36;65.91
61682;BME280;47577;43.610;25.010;2022-10-30T04:57:20;101003.50;;;12.31;64.86
61682;BME280;47577;43.610;25.010;2022-10-30T04:59:46;101002.75;;;12.26;66.15
61682;BME280;47577;43.610;25.010;2022-10-30T05:02:11;100996.84;;;12.16;66.10
61682;BME280;47577;43.610;25.010;2022-10-30T05:04:37;101010.72;;;12.28;66.22
61682;BME280;47577;43.610;25.010;2022-10-30T05:07:03;101018.63;;;12.31;65.91
61682;BME280;47577;43.610;25.010;2022-10-30T05:09:29;101011.56;;;12.30;66.67
61682;BME280;47577;43.610;25.010;2022-10-30T05:11:55;100993.31;;;12.16;66.83
61682;BME280;47577;43.610;25.010;2022-10-30T05:14:20;101005.59;;;12.21;67.01
61682;BME280;47577;43.610;25.010;2022-10-30T05:16:46;101009.16;;;12.20;67.49
61682;BME280;47577;43.610;25.010;2022-10-30T05:19:12;101014.63;;;12.16;66.76
61682;BME280;47577;43.610;25.010;2022-10-30T05:21:38;101008.97;;;12.27;67.23
61682;BME280;47577;43.610;25.010;2022-10-30T05:24:04;101010.63;;;12.31;67.29
61682;BME280;47577;43.610;25.010;2022-10-30T05:26:29;101012.69;;;12.21;67.09
61682;BME280;47577;43.610;25.010;2022-10-30T05:28:55;101021.41;;;12.26;67.04
61682;BME280;47577;43.610;25.010;2022-10-30T05:31:21;101011.16;;;12.14;67.36
61682;BME280;47577;43.610;25.010;2022-10-30T05:33:47;101017.22;;;12.19;67.42
61682;BME280;47577;43.610;25.010;2022-10-30T05:36:12;101017.13;;;12.22;66.78
61682;BME280;47577;43.610;25.010;2022-10-30T05:38:38;101021.50;;;12.24;67.70
61682;BME280;47577;43.610;25.010;2022-10-30T05:41:03;101021.41;;;12.26;67.90
61682;BME280;47577;43.610;25.010;2022-10-30T05:43:29;101016.94;;;12.28;67.13
61682;BME280;47577;43.610;25.010;2022-10-30T05:45:55;101028.19;;;12.38;66.50
61682;BME280;47577;43.610;25.010;2022-10-30T05:48:20;101039.72;;;12.38;65.77
61682;BME280;47577;43.610;25.010;2022-10-30T05:50:46;101036.69;;;12.51;66.73
61682;BME280;47577;43.610;25.010;2022-10-30T05:53:12;101041.75;;;12.58;65.32
61682;BME280;47577;43.610;25.010;2022-10-30T05:55:37;101053.97;;;12.66;66.23
61682;BME280;47577;43.610;25.010;2022-10-30T05:58:04;101040.31;;;12.76;65.46
61682;BME280;47577;43.610;25.010;2022-10-30T06:00:33;101060.16;;;12.94;66.47
61682;BME280;47577;43.610;25.010;2022-10-30T06:03:04;101050.06;;;13.04;65.04
61682;BME280;47577;43.610;25.010;2022-10-30T06:05:31;101056.91;;;13.11;65.14
61682;BME280;47577;43.610;25.010;2022-10-30T06:07:57;101055.66;;;13.22;65.24
61682;BME280;47577;43.610;25.010;2022-10-30T06:10:24;101054.28;;;13.38;64.11
61682;BME280;47577;43.610;25.010;2022-10-30T06:12:58;101046.16;;;13.41;62.61
61682;BME280;47577;43.610;25.010;2022-10-30T06:15:25;101048.16;;;13.60;61.94
61682;BME280;47577;43.610;25.010;2022-10-30T06:17:50;101044.84;;;13.53;63.13
61682;BME280;47577;43.610;25.010;2022-10-30T06:20:17;101046.13;;;13.66;63.78
61682;BME280;47577;43.610;25.010;2022-10-30T06:22:54;101032.97;;;13.60;63.30
61682;BME280;47577;43.610;25.010;2022-10-30T06:25:21;101041.53;;;13.70;63.39
61682;BME280;47577;43.610;25.010;2022-10-30T06:27:46;101031.22;;;13.84;61.66
61682;BME280;47577;43.610;25.010;2022-10-30T06:30:12;101033.72;;;13.89;62.88
61682;BME280;47577;43.610;25.010;2022-10-30T06:32:37;101027.50;;;13.88;61.85
61682;BME280;47577;43.610;25.010;2022-10-30T06:35:03;101037.97;;;13.95;62.69
61682;BME280;47577;43.610;25.010;2022-10-30T06:37:29;101050.06;;;14.05;62.39
61682;BME280;47577;43.610;25.010;2022-10-30T06:39:55;101038.28;;;14.09;62.09
61682;BME280;47577;43.610;25.010;2022-10-30T06:42:20;101033.28;;;14.23;61.44
61682;BME280;47577;43.610;25.010;2022-10-30T06:44:46;101033.91;;;14.30;61.15
61682;BME280;47577;43.610;25.010;2022-10-30T06:47:13;101036.28;;;14.38;61.57
61682;BME280;47577;43.610;25.010;2022-10-30T06:49:39;101030.03;;;14.39;61.16
61682;BME280;47577;43.610;25.010;2022-10-30T06:52:05;101035.50;;;14.59;60.76
61682;BME280;47577;43.610;25.010;2022-10-30T06:54:31;101038.84;;;14.65;60.99
61682;BME280;47577;43.610;25.010;2022-10-30T06:56:57;101025.00;;;14.75;59.40
61682;BME280;47577;43.610;25.010;2022-10-30T06:59:23;101022.19;;;14.78;60.88
61682;BME280;47577;43.610;25.010;2022-10-30T07:01:48;101025.66;;;14.82;59.89
61682;BME280;47577;43.610;25.010;2022-10-30T07:04:14;101036.97;;;15.09;59.29
61682;BME280;47577;43.610;25.010;2022-10-30T07:06:41;101039.69;;;15.30;58.11
61682;BME280;47577;43.610;25.010;2022-10-30T07:09:06;101035.19;;;15.30;57.71
61682;BME280;47577;43.610;25.010;2022-10-30T07:11:32;101049.38;;;15.53;57.34
61682;BME280;47577;43.610;25.010;2022-10-30T07:13:58;101027.59;;;15.61;57.78
61682;BME280;47577;43.610;25.010;2022-10-30T07:16:23;101033.91;;;15.80;57.07
61682;BME280;47577;43.610;25.010;2022-10-30T07:18:50;101030.53;;;15.96;56.47
61682;BME280;47577;43.610;25.010;2022-10-30T07:21:15;101036.03;;;16.12;56.18
61682;BME280;47577;43.610;25.010;2022-10-30T07:23:41;101033.81;;;16.21;56.93
61682;BME280;47577;43.610;25.010;2022-10-30T07:26:07;101027.47;;;16.41;55.48
61682;BME280;47577;43.610;25.010;2022-10-30T07:28:33;101019.28;;;16.25;56.47
61682;BME280;47577;43.610;25.010;2022-10-30T07:30:59;101027.56;;;16.40;55.98
61682;BME280;47577;43.610;25.010;2022-10-30T07:33:24;101035.03;;;16.70;54.53
61682;BME280;47577;43.610;25.010;2022-10-30T07:35:50;101031.91;;;16.79;53.65
61682;BME280;47577;43.610;25.010;2022-10-30T07:38:16;101028.13;;;16.83;53.89
61682;BME280;47577;43.610;25.010;2022-10-30T07:40:42;101027.59;;;16.94;53.31
61682;BME280;47577;43.610;25.010;2022-10-30T07:43:09;101029.22;;;16.98;52.69
61682;BME280;47577;43.610;25.010;2022-10-30T07:45:38;101038.53;;;17.08;53.01
61682;BME280;47577;43.610;25.010;2022-10-30T07:48:04;101029.75;;;17.05;53.84
61682;BME280;47577;43.610;25.010;2022-10-30T07:50:30;101026.63;;;17.14;53.82
61682;BME280;47577;43.610;25.010;2022-10-30T07:52:56;101010.53;;;17.30;53.65
61682;BME280;47577;43.610;25.010;2022-10-30T07:55:22;101022.00;;;17.51;53.65
61682;BME280;47577;43.610;25.010;2022-10-30T07:57:48;101015.59;;;17.53;52.98
61682;BME280;47577;43.610;25.010;2022-10-30T08:00:15;101024.84;;;17.81;51.79
61682;BME280;47577;43.610;25.010;2022-10-30T08:02:41;101013.38;;;17.95;52.49
61682;BME280;47577;43.610;25.010;2022-10-30T08:05:08;101013.13;;;18.00;51.61
61682;BME280;47577;43.610;25.010;2022-10-30T08:07:35;101007.22;;;18.09;51.58
61682;BME280;47577;43.610;25.010;2022-10-30T08:10:02;101011.31;;;18.16;50.98
61682;BME280;47577;43.610;25.010;2022-10-30T08:12:28;101001.34;;;18.34;52.00
61682;BME280;47577;43.610;25.010;2022-10-30T08:14:54;100991.78;;;18.28;50.85
61682;BME280;47577;43.610;25.010;2022-10-30T08:17:20;100993.59;;;18.44;50.43
61682;BME280;47577;43.610;25.010;2022-10-30T08:19:46;100984.38;;;18.48;50.68
61682;BME280;47577;43.610;25.010;2022-10-30T08:22:12;100983.59;;;18.62;49.15
61682;BME280;47577;43.610;25.010;2022-10-30T08:24:38;100978.19;;;18.78;49.62
61682;BME280;47577;43.610;25.010;2022-10-30T08:27:04;100968.53;;;18.90;49.09
61682;BME280;47577;43.610;25.010;2022-10-30T08:29:30;100970.00;;;18.95;48.67
61682;BME280;47577;43.610;25.010;2022-10-30T08:31:55;100965.53;;;19.25;48.41
61682;BME280;47577;43.610;25.010;2022-10-30T08:34:22;100977.53;;;19.19;48.16
61682;BME280;47577;43.610;25.010;2022-10-30T08:36:49;100977.28;;;19.24;47.10
61682;BME280;47577;43.610;25.010;2022-10-30T08:39:15;100966.50;;;19.24;47.43
61682;BME280;47577;43.610;25.010;2022-10-30T08:41:41;100968.16;;;19.41;47.87
61682;BME280;47577;43.610;25.010;2022-10-30T08:44:06;100953.50;;;19.59;46.29
61682;BME280;47577;43.610;25.010;2022-10-30T08:46:33;100967.19;;;19.70;46.38
61682;BME280;47577;43.610;25.010;2022-10-30T08:48:58;100957.56;;;19.81;47.24
61682;BME280;47577;43.610;25.010;2022-10-30T08:51:24;100954.75;;;19.97;45.51
61682;BME280;47577;43.610;25.010;2022-10-30T08:53:50;100943.78;;;20.00;46.66
61682;BME280;47577;43.610;25.010;2022-10-30T08:56:16;100955.81;;;20.08;46.47
61682;BME280;47577;43.610;25.010;2022-10-30T08:58:42;100949.53;;;20.08;45.49
61682;BME280;47577;43.610;25.010;2022-10-30T09:01:08;100943.19;;;20.09;45.20
61682;BME280;47577;43.610;25.010;2022-10-30T09:03:33;100944.03;;;20.09;46.33
61682;BME280;47577;43.610;25.010;2022-10-30T09:05:59;100940.91;;;20.30;45.02
61682;BME280;47577;43.610;25.010;2022-10-30T09:08:26;100931.50;;;20.36;45.10
61682;BME280;47577;43.610;25.010;2022-10-30T09:10:55;100925.81;;;20.40;45.58
61682;BME280;47577;43.610;25.010;2022-10-30T09:13:22;100937.09;;;20.60;44.78
61682;BME280;47577;43.610;25.010;2022-10-30T09:15:47;100929.50;;;20.67;44.68
61682;BME280;47577;43.610;25.010;2022-10-30T09:18:13;100928.00;;;20.75;43.44
61682;BME280;47577;43.610;25.010;2022-10-30T09:20:38;100920.97;;;20.73;44.26
61682;BME280;47577;43.610;25.010;2022-10-30T09:23:04;100926.59;;;20.82;43.39
61682;BME280;47577;43.610;25.010;2022-10-30T09:25:30;100930.06;;;20.85;43.45
61682;BME280;47577;43.610;25.010;2022-10-30T09:27:55;100921.09;;;20.84;44.30
61682;BME280;47577;43.610;25.010;2022-10-30T09:30:21;100914.53;;;21.01;43.27
61682;BME280;47577;43.610;25.010;2022-10-30T09:32:55;100924.81;;;21.22;42.09
61682;BME280;47577;43.610;25.010;2022-10-30T09:35:21;100915.63;;;21.24;42.90
61682;BME280;47577;43.610;25.010;2022-10-30T09:37:47;100915.94;;;21.45;41.28
61682;BME280;47577;43.610;25.010;2022-10-30T09:42:48;100905.84;;;21.73;41.50
61682;BME280;47577;43.610;25.010;2022-10-30T09:45:46;100897.50;;;21.89;40.49
61682;BME280;47577;43.610;25.010;2022-10-30T09:54:22;100882.19;;;22.25;39.14
61682;BME280;47577;43.610;25.010;2022-10-30T09:57:05;100885.94;;;22.35;38.55
61682;BME280;47577;43.610;25.010;2022-10-30T09:59:42;100885.75;;;22.50;38.12
61682;BME280;47577;43.610;25.010;2022-10-30T10:02:25;100871.50;;;22.59;38.04
61682;BME280;47577;43.610;25.010;2022-10-30T10:04:58;100860.69;;;22.59;38.46
61682;BME280;47577;43.610;25.010;2022-10-30T10:07:34;100868.13;;;22.79;37.84
61682;BME280;47577;43.610;25.010;2022-10-30T10:10:05;100862.50;;;22.94;37.57
61682;BME280;47577;43.610;25.010;2022-10-30T10:12:45;100852.75;;;22.91;36.34
61682;BME280;47577;43.610;25.010;2022-10-30T10:17:48;100853.97;;;22.87;35.91
61682;BME280;47577;43.610;25.010;2022-10-30T10:20:26;100851.53;;;23.07;35.90
61682;BME280;47577;43.610;25.010;2022-10-30T10:22:56;100855.03;;;23.20;35.59
61682;BME280;47577;43.610;25.010;2022-10-30T10:25:24;100842.44;;;23.19;35.28
61682;BME280;47577;43.610;25.010;2022-10-30T10:41:29;100839.00;;;23.51;34.28
61682;BME280;47577;43.610;25.010;2022-10-30T10:44:14;100819.69;;;23.77;33.43
61682;BME280;47577;43.610;25.010;2022-10-30T10:52:15;100822.66;;;23.85;34.86
61682;BME280;47577;43.610;25.010;2022-10-30T10:54:58;100817.69;;;24.01;34.44
61682;BME280;47577;43.610;25.010;2022-10-30T10:57:37;100812.06;;;24.14;33.90
61682;BME280;47577;43.610;25.010;2022-10-30T11:00:07;100803.16;;;24.23;33.56
61682;BME280;47577;43.610;25.010;2022-10-30T11:05:05;100803.03;;;24.25;33.80
61682;BME280;47577;43.610;25.010;2022-10-30T11:07:35;100790.75;;;24.31;33.18
61682;BME280;47577;43.610;25.010;2022-10-30T11:10:11;100788.56;;;24.45;34.59
61682;BME280;47577;43.610;25.010;2022-10-30T11:12:38;100784.97;;;24.56;32.83
61682;BME280;47577;43.610;25.010;2022-10-30T11:15:34;100782.63;;;24.73;34.11
61682;BME280;47577;43.610;25.010;2022-10-30T11:18:11;100777.69;;;24.88;31.45
61682;BME280;47577;43.610;25.010;2022-10-30T11:25:58;100768.34;;;25.11;31.55
61682;BME280;47577;43.610;25.010;2022-10-30T11:28:51;100759.91;;;25.14;31.65
61682;BME280;47577;43.610;25.010;2022-10-30T11:31:26;100751.75;;;25.14;31.05
61682;BME280;47577;43.610;25.010;2022-10-30T11:33:53;100747.34;;;25.23;30.98
61682;BME280;47577;43.610;25.010;2022-10-30T11:36:23;100750.38;;;25.30;31.60
61682;BME280;47577;43.610;25.010;2022-10-30T11:38:50;100738.97;;;25.46;30.74
61682;BME280;47577;43.610;25.010;2022-10-30T11:41:17;100739.41;;;25.61;30.69
61682;BME280;47577;43.610;25.010;2022-10-30T11:43:44;100736.41;;;25.44;30.97
61682;BME280;47577;43.610;25.010;2022-10-30T11:46:14;100742.13;;;25.51;30.80
61682;BME280;47577;43.610;25.010;2022-10-30T11:48:43;100732.13;;;25.61;30.90
61682;BME280;47577;43.610;25.010;2022-10-30T11:51:11;100719.09;;;25.65;30.33
61682;BME280;47577;43.610;25.010;2022-10-30T11:53:41;100739.28;;;25.72;29.95
61682;BME280;47577;43.610;25.010;2022-10-30T11:56:15;100718.38;;;25.53;29.76
61682;BME280;47577;43.610;25.010;2022-10-30T11:58:45;100713.50;;;25.57;29.97
61682;BME280;47577;43.610;25.010;2022-10-30T12:01:18;100722.91;;;25.33;29.78
61682;BME280;47577;43.610;25.010;2022-10-30T12:03:45;100706.88;;;25.40;30.41
61682;BME280;47577;43.610;25.010;2022-10-30T12:06:18;100715.38;;;25.66;30.21
61682;BME280;47577;43.610;25.010;2022-10-30T12:09:14;100720.19;;;25.43;30.19
61682;BME280;47577;43.610;25.010;2022-10-30T12:11:44;100701.44;;;25.40;30.52
61682;BME280;47577;43.610;25.010;2022-10-30T12:14:22;100697.88;;;25.59;30.85
61682;BME280;47577;43.610;25.010;2022-10-30T12:16:54;100697.44;;;25.53;30.33
61682;BME280;47577;43.610;25.010;2022-10-30T12:19:22;100712.31;;;24.99;31.52
61682;BME280;47577;43.610;25.010;2022-10-30T12:21:51;100696.34;;;25.15;30.99
61682;BME280;47577;43.610;25.010;2022-10-30T12:24:30;100697.25;;;25.26;30.78
61682;BME280;47577;43.610;25.010;2022-10-30T12:27:00;100693.28;;;25.59;30.73
61682;BME280;47577;43.610;25.010;2022-10-30T12:33:35;100690.56;;;25.79;30.36
61682;BME280;47577;43.610;25.010;2022-10-30T12:35:54;100677.97;;;25.87;30.48
61682;BME280;47577;43.610;25.010;2022-10-30T12:38:32;100684.41;;;26.06;30.65
61682;BME280;47577;43.610;25.010;2022-10-30T12:41:21;100690.59;;;25.98;29.89
61682;BME280;47577;43.610;25.010;2022-10-30T12:46:45;100679.09;;;26.04;30.13
61682;BME280;47577;43.610;25.010;2022-10-30T12:49:40;100682.69;;;26.24;30.36
61682;BME280;47577;43.610;25.010;2022-10-30T12:55:04;100682.16;;;26.58;29.11
61682;BME280;47577;43.610;25.010;2022-10-30T12:57:36;100687.44;;;26.60;29.33
61682;BME280;47577;43.610;25.010;2022-10-30T13:00:13;100696.56;;;26.78;29.43
61682;BME280;47577;43.610;25.010;2022-10-30T13:05:29;100688.97;;;26.25;30.40
61682;BME280;47577;43.610;25.010;2022-10-30T13:08:09;100691.16;;;25.92;30.42
61682;BME280;47577;43.610;25.010;2022-10-30T13:10:41;100691.84;;;25.94;30.29
61682;BME280;47577;43.610;25.010;2022-10-30T13:13:15;100689.16;;;26.04;29.47
61682;BME280;47577;43.610;25.010;2022-10-30T13:15:49;100683.00;;;25.82;30.44
61682;BME280;47577;43.610;25.010;2022-10-30T13:18:21;100691.31;;;26.00;30.90
61682;BME280;47577;43.610;25.010;2022-10-30T13:21:05;100697.88;;;25.49;31.51
61682;BME280;47577;43.610;25.010;2022-10-30T13:26:39;100683.13;;;25.71;31.44
61682;BME280;47577;43.610;25.010;2022-10-30T13:31:57;100690.56;;;25.49;32.20
61682;BME280;47577;43.610;25.010;2022-10-30T13:53:46;100698.41;;;24.92;33.16
61682;BME280;47577;43.610;25.010;2022-10-30T13:56:15;100690.22;;;24.52;34.17
61682;BME280;47577;43.610;25.010;2022-10-30T14:01:33;100678.34;;;24.53;34.38
61682;BME280;47577;43.610;25.010;2022-10-30T14:04:39;100694.09;;;24.80;33.67
61682;BME280;47577;43.610;25.010;2022-10-30T14:10:09;100690.53;;;24.89;34.46
61682;BME280;47577;43.610;25.010;2022-10-30T14:13:16;100681.16;;;25.03;34.50
61682;BME280;47577;43.610;25.010;2022-10-30T14:15:46;100671.97;;;25.04;34.14
61682;BME280;47577;43.610;25.010;2022-10-30T14:20:41;100672.16;;;25.12;34.29
61682;BME280;47577;43.610;25.010;2022-10-30T14:23:35;100668.22;;;24.95;34.62
61682;BME280;47577;43.610;25.010;2022-10-30T14:28:34;100671.00;;;24.43;35.43
61682;BME280;47577;43.610;25.010;2022-10-30T14:31:10;100661.72;;;24.46;35.25
61682;BME280;47577;43.610;25.010;2022-10-30T14:37:09;100679.84;;;24.15;35.59
61682;BME280;47577;43.610;25.010;2022-10-30T14:55:49;100669.63;;;23.53;37.97
61682;BME280;47577;43.610;25.010;2022-10-30T14:58:23;100661.25;;;23.45;38.17
61682;BME280;47577;43.610;25.010;2022-10-30T15:01:20;100652.81;;;23.27;38.39
61682;BME280;47577;43.610;25.010;2022-10-30T15:04:21;100665.41;;;23.28;37.66
61682;BME280;47577;43.610;25.010;2022-10-30T15:06:59;100667.78;;;23.10;38.72
61682;BME280;47577;43.610;25.010;2022-10-30T15:09:39;100658.31;;;22.82;38.90